Chandlers Valley, PA

11:58 PM EDT on October 01, 2014 (GMT -0400)
Erie International | Change Station
CLOSE
Current Station
Airport
Location: Erie,
Elevation: 738 ft
Nearby Weather Stations

Elev 738 ft 42.08 °N, 80.18 °W | Updated 7 minutes ago

Clear
Clear
61 °F
Feels Like 61 °F
N
0
Wind Variable Wind from North

Today
High -- | Low -- °F
--% Chance of Precip.
Yesterday
High -- | Low -- °F
Precip. -- in
7:14 AM 6:58 PM
First Quarter, 54% visible
Pressure 30.05 in
Visibility 2.0 miles
Clouds Clear
Dew Point 58 °F
Humidity 90%
Rainfall 0.63 in
Snow Depth Not available.
UV 0 out of 12
Pollen 3.40 out of 12
Air Quality Not available.
Flu Activity Not available.
METAR KERI 020351Z 00000KT 2SM BR CLR 16/14 A3005 RMK AO2 SLP174 T01610144

More Conditions Fewer Conditions

Pressure 30.05 in
Visibility 2.0 miles
Clouds Clear
Dew Point 58 °F
Humidity 90%
Rainfall 0.63 in
Snow Depth Not available.
UV 0 out of 12
Pollen 3.40 out of 12
Air Quality Not available.
Flu Activity Not available.
METAR KERI 020351Z 00000KT 2SM BR CLR 16/14 A3005 RMK AO2 SLP174 T01610144

More Conditions Fewer Conditions

10-Day Weather Forecast

Almanac

Astronomy

Oct. 01, 2014 Rise Set
Actual Time 7:14 AM EDT 6:58 PM EDT
Civil Twilight 6:46 AM EDT 7:26 PM EDT
Nautical Twilight 6:13 AM EDT 7:58 PM EDT
Astronomical Twilight 5:41 AM EDT 8:31 PM EDT
Moon 2:17 PM EDT (10/1) No Moon Set
Length of Visible Light 12h 40m
Length of Day
11h 44m
Tomorrow will be 2m 46s shorter.
First Quarter, 54% of the Moon is Illuminated
Today
First Quarter
Oct 8
Full
Oct 15
Last Quarter
Oct 23
New
Oct 30
First Quarter

Today's Extremes

State Highs State Lows

Community

WunderPhotos

Upload Photos

1,758,170 photos uploaded!

Nearby

Snow Depth

Station Depth Elevation
No new snow has been reported.

Earthquake Activity

City Distance Mag. Time & Date
No recent earthquake activity has been reported nearby.
Minimum magnitude displayed is 2.5.

Coastal Water Temperatures

Place Temperature
No Stations Reporting

Nearby Weather Stations